LFSN/ENC METAR and TAF weather

Enter ICAO airport designator
Station Type Date Time Source
LFSN METAR 2020/04/05 19:30 UTC NOAA

LFSN 051930Z AUTO 02004KT CAVOK 13/01 Q1018


Station Type Date Time Source
LFSN Decoded METAR 2020/04/05 19:30 UTC NOAA

Nancy / Essey, France (LFSN) 48-41N 006-13E 217M
Apr 05, 2020 - 03:30 PM EDT / 2020.04.05 1930 UTC
Wind: from the NNE (020 degrees) at 5 MPH (4 KT):0
Visibility: greater than 7 mile(s):0
Temperature: 55 F (13 C)
Dew Point: 33 F (1 C)
Relative Humidity: 43%
Pressure (altimeter): 30.06 in. Hg (1018 hPa)
ob: LFSN 051930Z AUTO 02004KT CAVOK 13/01 Q1018
cycle: 19

Station Type Date Time Source
LFSN TAF 2012/03/14 16:58 UTC NOAA

TAF LFSN 141600Z 1416/1512 CNL

Example: see airport list